Time;durP1;ratioP1;P1;durP2;ratioP2;P2;SDS_P1;SDS_P2;PMS_P1;PMS_P2;Temp;Humidity;BMP_temperature;BMP_pressure;BME280_temperature;BME280_humidity;BME280_pressure;Samples;Min_cycle;Max_cycle;Signal;HPM_P1;HPM_P2
2023/08/22 00:01:36;;;;;;;0.93;0.93;;;;;;;;;;5062487;27;88586;-59
2023/08/22 00:04:07;;;;;;;1.20;0.87;;;;;;;;;;5062598;27;89007;-60
2023/08/22 00:06:36;;;;;;;1.07;0.90;;;;;;;;;;5061782;27;87466;-60
2023/08/22 00:09:08;;;;;;;1.93;1.30;;;;;;;;;;5062044;27;87583;-60
2023/08/22 00:11:36;;;;;;;1.77;1.30;;;;;;;;;;5061636;27;88934;-59
2023/08/22 00:14:07;;;;;;;1.27;1.03;;;;;;;;;;5061847;27;88028;-60
2023/08/22 00:16:35;;;;;;;1.83;1.07;;;;;;;;;;5062106;27;87429;-60
2023/08/22 00:19:05;;;;;;;1.00;0.80;;;;;;;;;;5061780;27;87204;-60
2023/08/22 00:21:38;;;;;;;2.20;1.00;;;;;;;;;;5061439;27;89684;-60
2023/08/22 00:24:10;;;;;;;0.80;0.80;;;;;;;;;;5061292;27;88079;-60
2023/08/22 00:26:40;;;;;;;1.37;1.00;;;;;;;;;;5061501;27;87429;-59
2023/08/22 00:29:11;;;;;;;0.93;0.80;;;;;;;;;;5062010;27;87584;-60
2023/08/22 00:31:42;;;;;;;0.90;0.60;;;;;;;;;;5061658;27;88847;-60
2023/08/22 00:34:12;;;;;;;1.33;0.97;;;;;;;;;;5062446;27;88989;-60
2023/08/22 00:36:40;;;;;;;1.47;0.90;;;;;;;;;;5062000;27;87366;-60
2023/08/22 00:39:10;;;;;;;2.73;1.00;;;;;;;;;;5061017;27;87687;-60
2023/08/22 00:41:38;;;;;;;1.23;0.80;;;;;;;;;;5061371;27;89800;-60
2023/08/22 00:44:07;;;;;;;1.30;0.90;;;;;;;;;;5061154;27;89051;-60
2023/08/22 00:46:35;;;;;;;1.10;0.90;;;;;;;;;;5061761;27;87295;-60
2023/08/22 00:49:04;;;;;;;1.40;1.00;;;;;;;;;;5061992;27;87641;-60
2023/08/22 00:51:32;;;;;;;1.17;0.70;;;;;;;;;;5061436;27;88537;-60
2023/08/22 00:54:01;;;;;;;2.70;0.90;;;;;;;;;;5061709;27;87993;-59
2023/08/22 00:56:30;;;;;;;1.10;0.80;;;;;;;;;;5061768;27;87532;-60
2023/08/22 00:59:02;;;;;;;1.03;0.87;;;;;;;;;;5061851;27;87615;-60
2023/08/22 01:01:30;;;;;;;1.60;0.53;;;;;;;;;;5061587;27;87375;-60
2023/08/22 01:03:59;;;;;;;1.70;0.90;;;;;;;;;;5061734;27;88065;-59
2023/08/22 01:06:29;;;;;;;0.70;0.70;;;;;;;;;;5061674;27;88725;-60
2023/08/22 01:08:59;;;;;;;1.63;1.10;;;;;;;;;;5061372;27;87670;-60
2023/08/22 01:11:31;;;;;;;1.00;0.90;;;;;;;;;;5061433;27;89612;-60
2023/08/22 01:14:01;;;;;;;0.87;0.83;;;;;;;;;;5061439;27;88055;-59
2023/08/22 01:16:31;;;;;;;1.40;1.10;;;;;;;;;;5061845;27;87291;-60
2023/08/22 01:19:01;;;;;;;3.13;1.30;;;;;;;;;;5062049;27;87595;-60
2023/08/22 01:21:32;;;;;;;2.60;1.43;;;;;;;;;;5061625;27;88557;-59
2023/08/22 01:24:02;;;;;;;1.60;1.30;;;;;;;;;;5061664;27;88094;-60
2023/08/22 01:26:30;;;;;;;3.13;1.77;;;;;;;;;;5061907;27;87286;-59
2023/08/22 01:28:59;;;;;;;2.87;1.73;;;;;;;;;;5061704;27;87366;-60
2023/08/22 01:31:32;;;;;;;3.40;2.10;;;;;;;;;;5061673;27;88531;-60
2023/08/22 01:34:04;;;;;;;5.97;2.60;;;;;;;;;;5061325;27;89092;-59
2023/08/22 01:36:34;;;;;;;3.47;2.47;;;;;;;;;;5064710;27;87469;-59
2023/08/22 01:39:07;;;;;;;3.77;2.10;;;;;;;;;;5064383;27;87601;-60
2023/08/22 01:41:41;;;;;;;3.30;2.27;;;;;;;;;;5064720;27;88001;-60
2023/08/22 01:44:11;;;;;;;4.50;3.00;;;;;;;;;;5064399;27;88021;-60
2023/08/22 01:46:40;;;;;;;3.63;2.50;;;;;;;;;;5064687;27;87213;-60
2023/08/22 01:49:08;;;;;;;2.80;2.20;;;;;;;;;;5064974;27;87607;-60
2023/08/22 01:51:36;;;;;;;4.07;2.47;;;;;;;;;;5064842;27;88550;-60
2023/08/22 01:54:06;;;;;;;2.30;2.07;;;;;;;;;;5064549;27;89066;-59
2023/08/22 01:56:36;;;;;;;2.47;1.93;;;;;;;;;;5065326;27;87460;-60
2023/08/22 01:59:04;;;;;;;3.67;2.23;;;;;;;;;;5063669;27;87661;-60
2023/08/22 02:01:36;;;;;;;2.70;2.27;;;;;;;;;;5064164;27;89361;-60
2023/08/22 02:04:09;;;;;;;1.87;1.60;;;;;;;;;;5063844;27;88036;-60
2023/08/22 02:06:37;;;;;;;3.03;1.97;;;;;;;;;;5064556;27;87247;-60
2023/08/22 02:09:09;;;;;;;2.57;1.90;;;;;;;;;;5064237;27;87545;-60
2023/08/22 02:11:38;;;;;;;3.00;2.47;;;;;;;;;;5064573;27;89433;-60
2023/08/22 02:14:06;;;;;;;5.60;2.47;;;;;;;;;;5063839;27;89111;-60
2023/08/22 02:16:35;;;;;;;3.53;2.80;;;;;;;;;;5064497;27;87469;-59
2023/08/22 02:19:05;;;;;;;3.50;2.43;;;;;;;;;;5064062;27;88291;-59
2023/08/22 02:21:34;;;;;;;4.90;3.37;;;;;;;;;;5064968;27;89636;-60
2023/08/22 02:24:02;;;;;;;4.13;2.70;;;;;;;;;;5063809;27;87651;-59
2023/08/22 02:26:33;;;;;;;4.60;3.20;;;;;;;;;;5063921;27;87632;-59
2023/08/22 02:29:02;;;;;;;6.43;3.50;;;;;;;;;;5063870;27;87533;-60
2023/08/22 02:31:31;;;;;;;5.87;3.43;;;;;;;;;;5064279;27;88536;-60
2023/08/22 02:34:01;;;;;;;4.73;3.10;;;;;;;;;;5063681;27;88199;-59
2023/08/22 02:36:30;;;;;;;6.57;3.80;;;;;;;;;;5063442;27;87151;-60
2023/08/22 02:39:00;;;;;;;4.00;3.47;;;;;;;;;;5063365;27;87545;-59
2023/08/22 02:41:30;;;;;;;7.17;4.60;;;;;;;;;;5063884;27;88526;-60
2023/08/22 02:44:00;;;;;;;6.07;4.10;;;;;;;;;;5063612;27;87861;-60
2023/08/22 02:46:29;;;;;;;11.80;5.30;;;;;;;;;;5063826;27;87323;-59
2023/08/22 02:49:02;;;;;;;8.10;5.10;;;;;;;;;;5063164;27;87674;-59
2023/08/22 02:51:32;;;;;;;7.10;5.37;;;;;;;;;;5063342;27;89789;-60
2023/08/22 02:54:02;;;;;;;7.80;5.03;;;;;;;;;;5063426;27;87991;-60
2023/08/22 02:56:30;;;;;;;6.80;5.10;;;;;;;;;;5063350;27;87321;-59
2023/08/22 02:59:01;;;;;;;8.57;5.10;;;;;;;;;;5063520;27;87564;-59
2023/08/22 03:01:29;;;;;;;7.73;4.90;;;;;;;;;;5062572;27;90546;-59
2023/08/22 03:03:58;;;;;;;11.97;6.33;;;;;;;;;;5063028;27;87842;-59
2023/08/22 03:06:26;;;;;;;11.77;7.10;;;;;;;;;;5063974;27;87334;-59
2023/08/22 03:08:55;;;;;;;12.37;7.40;;;;;;;;;;5064028;27;87611;-59
2023/08/22 03:11:23;;;;;;;12.03;6.87;;;;;;;;;;5063133;27;89650;-59
2023/08/22 03:13:53;;;;;;;14.13;7.40;;;;;;;;;;5063210;27;89072;-59
2023/08/22 03:16:23;;;;;;;12.37;7.00;;;;;;;;;;5063794;27;87451;-59
2023/08/22 03:18:51;;;;;;;14.30;7.73;;;;;;;;;;5063719;27;87426;-60
2023/08/22 03:21:23;;;;;;;11.00;7.33;;;;;;;;;;5062856;27;87461;-60
2023/08/22 03:23:54;;;;;;;15.90;7.90;;;;;;;;;;5063404;27;87453;-59
2023/08/22 03:26:24;;;;;;;9.23;7.13;;;;;;;;;;5045242;27;87558;-59
2023/08/22 03:28:53;;;;;;;13.07;6.73;;;;;;;;;;5039917;28;87635;-59
2023/08/22 03:31:22;;;;;;;10.67;7.30;;;;;;;;;;5039509;28;88558;-59
2023/08/22 03:33:52;;;;;;;11.60;7.23;;;;;;;;;;5039665;28;88177;-59
2023/08/22 03:36:22;;;;;;;10.67;6.60;;;;;;;;;;5039745;28;87296;-60
2023/08/22 03:38:51;;;;;;;8.37;5.77;;;;;;;;;;5039520;28;87649;-60
2023/08/22 03:41:20;;;;;;;7.43;5.83;;;;;;;;;;5038734;28;87546;-60
2023/08/22 03:43:48;;;;;;;10.40;5.77;;;;;;;;;;5038705;28;89098;-59
2023/08/22 03:46:16;;;;;;;10.17;6.07;;;;;;;;;;5038832;28;87728;-59
2023/08/22 03:49:06;;;;;;;8.77;5.20;;;;;;;;;;5039684;28;87619;-59
2023/08/22 03:51:34;;;;;;;9.00;5.90;;;;;;;;;;5039395;28;88649;-59
2023/08/22 03:54:06;;;;;;;9.50;6.17;;;;;;;;;;5039196;27;88033;-59
2023/08/22 03:56:34;;;;;;;10.33;6.27;;;;;;;;;;5038681;28;87603;-60
2023/08/22 03:59:03;;;;;;;10.43;5.70;;;;;;;;;;5039577;27;87685;-59
2023/08/22 04:01:32;;;;;;;7.63;4.97;;;;;;;;;;5038651;27;89666;-59
2023/08/22 04:04:00;;;;;;;7.47;4.50;;;;;;;;;;5038766;28;89029;-59
2023/08/22 04:06:30;;;;;;;7.40;5.07;;;;;;;;;;5045399;27;87590;-59
2023/08/22 04:08:58;;;;;;;7.30;4.93;;;;;;;;;;5056226;27;87805;-59
2023/08/22 04:11:26;;;;;;;7.60;4.73;;;;;;;;;;5062105;27;88521;-59
2023/08/22 04:13:56;;;;;;;7.23;5.13;;;;;;;;;;5061844;27;87434;-59
2023/08/22 04:16:24;;;;;;;6.67;3.93;;;;;;;;;;5061844;27;87259;-59
2023/08/22 04:18:53;;;;;;;7.37;4.80;;;;;;;;;;5062982;27;87711;-59
2023/08/22 04:21:25;;;;;;;5.20;3.93;;;;;;;;;;5061891;27;89532;-59
2023/08/22 04:23:54;;;;;;;6.27;4.00;;;;;;;;;;5061254;27;87938;-59
2023/08/22 04:26:23;;;;;;;4.87;3.73;;;;;;;;;;5061678;27;87310;-59
2023/08/22 04:28:52;;;;;;;8.10;4.17;;;;;;;;;;5062671;27;87521;-59
2023/08/22 04:31:20;;;;;;;8.03;4.17;;;;;;;;;;5061995;27;88548;-59
2023/08/22 04:33:49;;;;;;;5.87;4.40;;;;;;;;;;5061605;27;87409;-60
2023/08/22 04:36:20;;;;;;;5.73;3.80;;;;;;;;;;5062116;27;87279;-59
2023/08/22 04:38:49;;;;;;;4.40;3.30;;;;;;;;;;5061740;27;87489;-59
2023/08/22 04:41:19;;;;;;;6.10;3.27;;;;;;;;;;5061969;27;88573;-59
2023/08/22 04:43:47;;;;;;;6.37;3.80;;;;;;;;;;5061780;27;89833;-60
2023/08/22 04:46:17;;;;;;;4.93;3.60;;;;;;;;;;5062539;27;87347;-59
2023/08/22 04:48:45;;;;;;;5.17;3.50;;;;;;;;;;5062577;27;87739;-59
2023/08/22 04:51:14;;;;;;;5.37;3.07;;;;;;;;;;5062186;27;89500;-59
2023/08/22 04:53:42;;;;;;;5.07;3.30;;;;;;;;;;5061336;27;88962;-59
2023/08/22 04:56:11;;;;;;;6.13;3.20;;;;;;;;;;5061860;27;87543;-60
2023/08/22 04:58:42;;;;;;;5.63;2.93;;;;;;;;;;5062169;27;87712;-60
2023/08/22 05:01:10;;;;;;;5.43;3.10;;;;;;;;;;5061944;27;89625;-59
2023/08/22 05:03:38;;;;;;;4.47;3.30;;;;;;;;;;5061495;27;88998;-59
2023/08/22 05:06:07;;;;;;;4.90;3.43;;;;;;;;;;5061821;27;87410;-59
2023/08/22 05:08:35;;;;;;;5.17;2.90;;;;;;;;;;5061868;27;87548;-59
2023/08/22 05:11:05;;;;;;;3.33;2.70;;;;;;;;;;5065182;27;87505;-59
2023/08/22 05:13:34;;;;;;;4.07;2.70;;;;;;;;;;5064880;27;88054;-59
2023/08/22 05:16:03;;;;;;;3.17;2.53;;;;;;;;;;5064976;27;87435;-60
2023/08/22 05:18:32;;;;;;;5.30;3.00;;;;;;;;;;5064742;27;87674;-60
2023/08/22 05:21:04;;;;;;;3.90;2.70;;;;;;;;;;5064988;27;88494;-60
2023/08/22 05:23:35;;;;;;;2.80;2.20;;;;;;;;;;5063958;27;88038;-59
2023/08/22 05:26:06;;;;;;;3.33;2.10;;;;;;;;;;5064336;27;87548;-60
2023/08/22 05:28:37;;;;;;;3.60;2.50;;;;;;;;;;5064416;27;87601;-60
2023/08/22 05:31:07;;;;;;;2.63;2.03;;;;;;;;;;5065393;27;89665;-60
2023/08/22 05:33:35;;;;;;;3.17;2.30;;;;;;;;;;5064382;27;88194;-59
2023/08/22 05:36:04;;;;;;;3.07;2.40;;;;;;;;;;5064448;27;87516;-60
2023/08/22 05:38:32;;;;;;;3.57;2.13;;;;;;;;;;5065055;27;87639;-60
2023/08/22 05:41:00;;;;;;;4.43;2.20;;;;;;;;;;5064265;27;89636;-60
2023/08/22 05:43:29;;;;;;;2.43;2.00;;;;;;;;;;5063726;27;89146;-59
2023/08/22 05:45:59;;;;;;;2.30;1.70;;;;;;;;;;5065127;27;87353;-60
2023/08/22 05:48:28;;;;;;;2.93;1.80;;;;;;;;;;5065094;27;87723;-60
2023/08/22 05:50:57;;;;;;;1.87;1.47;;;;;;;;;;5064148;27;88503;-59
2023/08/22 05:53:26;;;;;;;4.17;2.00;;;;;;;;;;5064226;27;89142;-59
2023/08/22 05:55:56;;;;;;;3.17;1.80;;;;;;;;;;5065209;27;87322;-60
2023/08/22 05:58:25;;;;;;;3.17;1.83;;;;;;;;;;5065088;27;87515;-60
2023/08/22 06:00:53;;;;;;;3.03;1.57;;;;;;;;;;5063959;27;89734;-60
2023/08/22 06:03:22;;;;;;;2.13;1.80;;;;;;;;;;5063061;27;87917;-60
2023/08/22 06:05:52;;;;;;;2.17;1.70;;;;;;;;;;5062326;27;87463;-60
2023/08/22 06:08:22;;;;;;;2.37;1.70;;;;;;;;;;5062931;27;87494;-60
2023/08/22 06:10:54;;;;;;;1.63;1.33;;;;;;;;;;5062564;27;88599;-60
2023/08/22 06:13:24;;;;;;;2.17;1.80;;;;;;;;;;5062607;27;89108;-59
2023/08/22 06:15:53;;;;;;;1.53;1.33;;;;;;;;;;5062784;27;88655;-60
2023/08/22 06:18:27;;;;;;;1.90;1.23;;;;;;;;;;5062545;27;87457;-59
2023/08/22 06:21:01;;;;;;;1.53;1.43;;;;;;;;;;5061353;27;89572;-60
2023/08/22 06:23:31;;;;;;;3.57;1.90;;;;;;;;;;5063044;27;88966;-60
2023/08/22 06:25:59;;;;;;;2.43;1.60;;;;;;;;;;5063208;27;88889;-60
2023/08/22 06:28:31;;;;;;;2.37;1.43;;;;;;;;;;5063200;27;87639;-59
2023/08/22 06:31:03;;;;;;;2.70;1.83;;;;;;;;;;5063310;27;89641;-60
2023/08/22 06:33:33;;;;;;;2.20;1.43;;;;;;;;;;5063140;27;89269;-60
2023/08/22 06:36:06;;;;;;;2.10;1.43;;;;;;;;;;5061640;27;87327;-60
2023/08/22 06:38:34;;;;;;;1.87;1.70;;;;;;;;;;5061315;27;88880;-59
2023/08/22 06:41:04;;;;;;;2.83;1.63;;;;;;;;;;5062917;27;88532;-60
2023/08/22 06:43:34;;;;;;;1.97;1.40;;;;;;;;;;5062116;27;88067;-60
2023/08/22 06:46:10;;;;;;;1.80;1.20;;;;;;;;;;5062432;27;87727;-59
2023/08/22 06:48:38;;;;;;;1.57;1.30;;;;;;;;;;5062134;27;87591;-60
2023/08/22 06:51:15;;;;;;;1.97;1.43;;;;;;;;;;5062367;27;89727;-59
2023/08/22 06:53:48;;;;;;;2.70;1.30;;;;;;;;;;5062389;27;89085;-59
2023/08/22 06:56:16;;;;;;;2.43;1.40;;;;;;;;;;5062687;27;88584;-60
2023/08/22 06:58:46;;;;;;;1.70;1.20;;;;;;;;;;5062736;27;87609;-60
2023/08/22 07:01:15;;;;;;;1.93;1.40;;;;;;;;;;5062101;27;89677;-59
2023/08/22 07:03:45;;;;;;;2.27;1.40;;;;;;;;;;5060662;27;89036;-60
2023/08/22 07:06:19;;;;;;;1.37;1.27;;;;;;;;;;5062074;27;89845;-59
2023/08/22 07:08:48;;;;;;;2.27;1.20;;;;;;;;;;5062462;27;87683;-60
2023/08/22 07:11:18;;;;;;;3.70;1.20;;;;;;;;;;5062032;27;87339;-59
2023/08/22 07:13:48;;;;;;;2.43;1.30;;;;;;;;;;5062192;27;87980;-60
2023/08/22 07:16:16;;;;;;;1.50;1.10;;;;;;;;;;5062010;27;87653;-59
2023/08/22 07:18:46;;;;;;;4.13;1.30;;;;;;;;;;5061206;27;87469;-60
2023/08/22 07:21:22;;;;;;;1.37;1.27;;;;;;;;;;5061612;27;89320;-61
2023/08/22 07:23:51;;;;;;;1.33;1.17;;;;;;;;;;5061272;27;87740;-60
2023/08/22 07:26:24;;;;;;;1.27;1.17;;;;;;;;;;5061666;27;87663;-60
2023/08/22 07:28:52;;;;;;;2.80;1.10;;;;;;;;;;5061079;27;87954;-60
2023/08/22 07:31:20;;;;;;;1.63;0.90;;;;;;;;;;5061391;27;88532;-60
2023/08/22 07:33:49;;;;;;;1.20;1.00;;;;;;;;;;5060737;27;88035;-60
2023/08/22 07:36:18;;;;;;;1.33;1.10;;;;;;;;;;5061420;27;88889;-61
2023/08/22 07:38:46;;;;;;;1.67;1.20;;;;;;;;;;5061194;27;87742;-59
2023/08/22 07:41:16;;;;;;;2.53;1.10;;;;;;;;;;5060987;27;89929;-60
2023/08/22 07:43:44;;;;;;;1.30;1.10;;;;;;;;;;5060212;27;89254;-59
2023/08/22 07:46:19;;;;;;;1.37;1.03;;;;;;;;;;5061573;27;87516;-60
2023/08/22 07:48:47;;;;;;;7.43;1.60;;;;;;;;;;5061593;27;87499;-59
2023/08/22 07:51:16;;;;;;;1.93;0.87;;;;;;;;;;5061272;27;87262;-59
2023/08/22 07:53:47;;;;;;;1.10;1.00;;;;;;;;;;5060775;27;89282;-60
2023/08/22 07:56:16;;;;;;;1.10;0.90;;;;;;;;;;5061479;27;89764;-60
2023/08/22 07:58:45;;;;;;;1.33;1.00;;;;;;;;;;5061744;27;87639;-59
2023/08/22 08:01:13;;;;;;;1.17;0.60;;;;;;;;;;5060871;27;89759;-60
2023/08/22 08:03:44;;;;;;;0.60;0.60;;;;;;;;;;5060708;27;89324;-60
2023/08/22 08:06:12;;;;;;;0.83;0.80;;;;;;;;;;5061149;27;88805;-59
2023/08/22 08:08:40;;;;;;;4.93;1.27;;;;;;;;;;5060957;27;87587;-59
2023/08/22 08:11:09;;;;;;;0.90;0.80;;;;;;;;;;5061013;27;88503;-59
2023/08/22 08:13:39;;;;;;;0.80;0.73;;;;;;;;;;5061042;27;88143;-59
2023/08/22 08:16:10;;;;;;;2.87;0.93;;;;;;;;;;5059726;27;88851;-60
2023/08/22 08:18:39;;;;;;;1.73;1.07;;;;;;;;;;5060902;27;87874;-60
2023/08/22 08:21:08;;;;;;;1.00;0.80;;;;;;;;;;5060335;27;89682;-59
2023/08/22 08:23:36;;;;;;;1.13;1.03;;;;;;;;;;5060531;27;88003;-59
2023/08/22 08:26:07;;;;;;;0.87;0.80;;;;;;;;;;5060675;27;87481;-60
2023/08/22 08:28:35;;;;;;;0.93;0.90;;;;;;;;;;5061100;27;87564;-59
2023/08/22 08:31:06;;;;;;;1.30;0.77;;;;;;;;;;5061155;27;88223;-60
2023/08/22 08:33:34;;;;;;;1.00;0.97;;;;;;;;;;5061277;27;89408;-59
2023/08/22 08:36:03;;;;;;;1.10;0.90;;;;;;;;;;5061270;27;87730;-59
2023/08/22 08:38:32;;;;;;;2.03;1.07;;;;;;;;;;5060956;27;87547;-59
2023/08/22 08:41:00;;;;;;;1.10;0.77;;;;;;;;;;5060371;27;87648;-59
2023/08/22 08:43:32;;;;;;;1.57;0.80;;;;;;;;;;5058867;27;88954;-59
2023/08/22 08:46:03;;;;;;;0.77;0.57;;;;;;;;;;5060796;27;89496;-59
2023/08/22 08:48:33;;;;;;;1.00;0.80;;;;;;;;;;5060632;27;87670;-59
2023/08/22 08:51:01;;;;;;;1.33;0.90;;;;;;;;;;5059992;27;87409;-59
2023/08/22 08:53:30;;;;;;;0.90;0.90;;;;;;;;;;5060648;27;89260;-59
2023/08/22 08:55:58;;;;;;;1.27;0.87;;;;;;;;;;5060003;27;88727;-59
2023/08/22 08:58:32;;;;;;;0.70;0.63;;;;;;;;;;5060227;27;87527;-60
2023/08/22 09:01:01;;;;;;;1.03;0.80;;;;;;;;;;5060868;27;88520;-60
2023/08/22 09:03:31;;;;;;;0.90;0.80;;;;;;;;;;5060449;27;89033;-59
2023/08/22 09:06:01;;;;;;;2.17;0.77;;;;;;;;;;5059803;27;89007;-59
2023/08/22 09:08:29;;;;;;;1.60;0.90;;;;;;;;;;5060070;27;87766;-59
2023/08/22 09:10:59;;;;;;;1.17;0.90;;;;;;;;;;5059977;27;88528;-59
2023/08/22 09:13:29;;;;;;;0.50;0.50;;;;;;;;;;5059608;27;88037;-60
2023/08/22 09:16:17;;;;;;;0.93;0.90;;;;;;;;;;5059596;27;90093;-59
2023/08/22 09:18:46;;;;;;;0.63;0.63;;;;;;;;;;5059773;27;87516;-59
2023/08/22 09:21:16;;;;;;;1.40;1.00;;;;;;;;;;5060778;27;89622;-60
2023/08/22 09:23:49;;;;;;;1.00;0.90;;;;;;;;;;5059896;27;87469;-59
2023/08/22 09:26:21;;;;;;;1.77;0.67;;;;;;;;;;5059774;27;89141;-60
2023/08/22 09:28:52;;;;;;;0.77;0.70;;;;;;;;;;5059413;27;87533;-59
2023/08/22 09:31:23;;;;;;;1.10;0.67;;;;;;;;;;5058916;27;89767;-59
2023/08/22 09:33:52;;;;;;;0.83;0.70;;;;;;;;;;5059732;27;90022;-59
2023/08/22 09:36:23;;;;;;;2.00;0.80;;;;;;;;;;5059245;27;87620;-59
2023/08/22 09:38:54;;;;;;;0.70;0.70;;;;;;;;;;5059490;27;87560;-59
2023/08/22 09:41:23;;;;;;;0.87;0.60;;;;;;;;;;5060204;27;88541;-59
2023/08/22 09:43:58;;;;;;;0.60;0.60;;;;;;;;;;5059767;27;88260;-59
2023/08/22 09:46:28;;;;;;;1.37;0.70;;;;;;;;;;5060361;27;88725;-59
2023/08/22 09:48:57;;;;;;;1.40;0.80;;;;;;;;;;5060429;27;87682;-60
2023/08/22 09:51:31;;;;;;;0.70;0.60;;;;;;;;;;5060206;27;88508;-59
2023/08/22 09:54:03;;;;;;;0.60;0.60;;;;;;;;;;5059179;27;87866;-60
2023/08/22 09:56:36;;;;;;;2.03;0.83;;;;;;;;;;5061998;27;87460;-59
2023/08/22 09:59:05;;;;;;;0.70;0.60;;;;;;;;;;5062060;27;87868;-59
2023/08/22 10:01:35;;;;;;;1.20;0.80;;;;;;;;;;5063257;27;88553;-60
2023/08/22 10:04:06;;;;;;;0.67;0.67;;;;;;;;;;5063151;27;89303;-59
2023/08/22 10:06:36;;;;;;;0.70;0.60;;;;;;;;;;5062403;27;88847;-60
2023/08/22 10:09:18;;;;;;;0.90;0.80;;;;;;;;;;5062518;27;87525;-60
2023/08/22 10:11:49;;;;;;;0.70;0.70;;;;;;;;;;5062107;27;89569;-60
2023/08/22 10:14:20;;;;;;;0.90;0.70;;;;;;;;;;5062141;27;89036;-59
2023/08/22 10:16:51;;;;;;;1.50;0.60;;;;;;;;;;5062884;27;87397;-60
2023/08/22 10:19:21;;;;;;;0.97;0.67;;;;;;;;;;5063610;27;87510;-60
2023/08/22 10:21:53;;;;;;;0.53;0.53;;;;;;;;;;5062974;27;88659;-59
2023/08/22 10:24:23;;;;;;;1.00;0.63;;;;;;;;;;5062164;27;88880;-59
2023/08/22 10:27:02;;;;;;;1.87;0.80;;;;;;;;;;5062203;27;87823;-59
2023/08/22 10:29:34;;;;;;;1.87;0.70;;;;;;;;;;5062842;27;87544;-60
2023/08/22 10:32:21;;;;;;;0.60;0.60;;;;;;;;;;5062438;27;88560;-59
2023/08/22 10:35:06;;;;;;;0.50;0.50;;;;;;;;;;5062816;27;87414;-60
2023/08/22 10:37:38;;;;;;;0.57;0.53;;;;;;;;;;5061789;27;88672;-59
2023/08/22 10:40:07;;;;;;;0.70;0.70;;;;;;;;;;5062581;27;87798;-59
2023/08/22 10:42:39;;;;;;;2.23;0.90;;;;;;;;;;5062298;27;88528;-59
2023/08/22 10:45:09;;;;;;;1.40;0.77;;;;;;;;;;5063093;27;88980;-60
2023/08/22 10:47:37;;;;;;;0.40;0.40;;;;;;;;;;5060861;27;88935;-59
2023/08/22 10:50:12;;;;;;;1.23;0.47;;;;;;;;;;5061842;27;87828;-59
2023/08/22 10:52:49;;;;;;;2.07;0.70;;;;;;;;;;5062678;27;88482;-59
2023/08/22 10:55:18;;;;;;;1.20;0.50;;;;;;;;;;5061762;27;88011;-60
2023/08/22 10:57:47;;;;;;;0.70;0.70;;;;;;;;;;5062528;27;87799;-60
2023/08/22 11:00:25;;;;;;;2.37;0.53;;;;;;;;;;5062562;27;87532;-59
2023/08/22 11:02:58;;;;;;;0.73;0.53;;;;;;;;;;5061325;27;89663;-60
2023/08/22 11:05:27;;;;;;;0.70;0.70;;;;;;;;;;5062283;27;87756;-59
2023/08/22 11:08:00;;;;;;;0.90;0.60;;;;;;;;;;5061214;27;88927;-59
2023/08/22 11:10:30;;;;;;;0.43;0.43;;;;;;;;;;5062390;27;87512;-59
2023/08/22 11:12:58;;;;;;;0.50;0.50;;;;;;;;;;5062514;27;89698;-59
2023/08/22 11:15:29;;;;;;;0.70;0.60;;;;;;;;;;5061900;27;89956;-59
2023/08/22 11:17:59;;;;;;;0.63;0.57;;;;;;;;;;5062439;27;89755;-59
2023/08/22 11:20:28;;;;;;;0.97;0.77;;;;;;;;;;5062739;27;87564;-59
2023/08/22 11:22:58;;;;;;;0.40;0.40;;;;;;;;;;5062392;27;88532;-59
2023/08/22 11:25:27;;;;;;;1.27;0.63;;;;;;;;;;5061935;27;87916;-59
2023/08/22 11:27:58;;;;;;;0.47;0.47;;;;;;;;;;5061756;27;87563;-59
2023/08/22 11:30:27;;;;;;;0.67;0.60;;;;;;;;;;5062570;27;87608;-60
2023/08/22 11:32:55;;;;;;;0.83;0.50;;;;;;;;;;5061424;27;88525;-59
2023/08/22 11:35:24;;;;;;;0.83;0.57;;;;;;;;;;5061489;27;89063;-60
2023/08/22 11:37:54;;;;;;;0.93;0.73;;;;;;;;;;5061529;27;87721;-60
2023/08/22 11:40:26;;;;;;;0.70;0.50;;;;;;;;;;5061121;27;87983;-60
2023/08/22 11:42:55;;;;;;;2.20;0.40;;;;;;;;;;5060727;27;89671;-60
2023/08/22 11:45:25;;;;;;;1.70;0.40;;;;;;;;;;5061455;27;87864;-60
2023/08/22 11:47:55;;;;;;;0.67;0.60;;;;;;;;;;5061211;27;87712;-59
2023/08/22 11:50:25;;;;;;;2.50;0.63;;;;;;;;;;5062190;27;87588;-60
2023/08/22 11:52:54;;;;;;;0.90;0.47;;;;;;;;;;5060625;27;88748;-59
2023/08/22 11:55:27;;;;;;;0.53;0.50;;;;;;;;;;5060981;27;89220;-59
2023/08/22 11:57:56;;;;;;;0.63;0.50;;;;;;;;;;5061415;27;88902;-59
2023/08/22 12:00:28;;;;;;;1.57;0.40;;;;;;;;;;5060871;27;87649;-59
2023/08/22 12:02:58;;;;;;;1.70;0.67;;;;;;;;;;5061445;27;90997;-59
2023/08/22 12:05:32;;;;;;;0.60;0.27;;;;;;;;;;5060668;27;90136;-59
2023/08/22 12:08:02;;;;;;;0.53;0.50;;;;;;;;;;5060894;27;88691;-60
2023/08/22 12:10:41;;;;;;;0.53;0.50;;;;;;;;;;5061396;27;87162;-60
2023/08/22 12:13:09;;;;;;;0.40;0.33;;;;;;;;;;5061089;27;89750;-59
2023/08/22 12:15:37;;;;;;;0.50;0.50;;;;;;;;;;5060620;27;87576;-59
2023/08/22 12:18:09;;;;;;;0.93;0.60;;;;;;;;;;5060168;27;87729;-59
2023/08/22 12:20:39;;;;;;;0.40;0.40;;;;;;;;;;5061305;27;87477;-60
2023/08/22 12:23:07;;;;;;;1.80;0.70;;;;;;;;;;5061089;27;89651;-59
2023/08/22 12:25:36;;;;;;;0.60;0.50;;;;;;;;;;5061148;27;88041;-59
2023/08/22 12:28:10;;;;;;;1.17;0.60;;;;;;;;;;5061124;27;87895;-60
2023/08/22 12:30:41;;;;;;;0.70;0.70;;;;;;;;;;5061425;27;87772;-59
2023/08/22 12:33:14;;;;;;;2.13;0.73;;;;;;;;;;5060678;27;88551;-59
2023/08/22 12:35:43;;;;;;;1.47;0.37;;;;;;;;;;5059823;27;89303;-60
2023/08/22 12:38:13;;;;;;;0.97;0.60;;;;;;;;;;5060019;27;87594;-59
2023/08/22 12:40:43;;;;;;;0.33;0.33;;;;;;;;;;5061207;27;87758;-59
2023/08/22 12:43:13;;;;;;;0.37;0.33;;;;;;;;;;5060421;27;89684;-60
2023/08/22 12:45:44;;;;;;;1.00;0.53;;;;;;;;;;5060581;27;87677;-59
2023/08/22 12:48:12;;;;;;;0.70;0.43;;;;;;;;;;5060400;27;87533;-60
2023/08/22 12:50:41;;;;;;;0.80;0.53;;;;;;;;;;5060869;27;87489;-59
2023/08/22 12:53:11;;;;;;;0.83;0.40;;;;;;;;;;5060267;27;88548;-60
2023/08/22 12:55:41;;;;;;;1.03;0.70;;;;;;;;;;5060076;27;88999;-60
2023/08/22 12:58:11;;;;;;;0.30;0.30;;;;;;;;;;5060263;27;90680;-60
2023/08/22 13:00:41;;;;;;;0.57;0.50;;;;;;;;;;5061346;27;87512;-60
2023/08/22 13:03:10;;;;;;;0.83;0.40;;;;;;;;;;5060955;27;88643;-60
2023/08/22 13:05:39;;;;;;;0.70;0.67;;;;;;;;;;5059494;27;88952;-59
2023/08/22 13:08:12;;;;;;;2.10;0.77;;;;;;;;;;5059955;27;87673;-59
2023/08/22 13:10:40;;;;;;;0.40;0.40;;;;;;;;;;5059980;27;87560;-60
2023/08/22 13:13:10;;;;;;;0.60;0.40;;;;;;;;;;5060242;27;88490;-59
2023/08/22 13:15:38;;;;;;;0.50;0.50;;;;;;;;;;5060430;27;88078;-59
2023/08/22 13:18:08;;;;;;;0.50;0.50;;;;;;;;;;5059496;27;88775;-59
2023/08/22 13:20:36;;;;;;;0.43;0.43;;;;;;;;;;5059649;27;87638;-60
2023/08/22 13:23:05;;;;;;;0.60;0.40;;;;;;;;;;5060844;27;88487;-59
2023/08/22 13:25:37;;;;;;;0.50;0.50;;;;;;;;;;5059643;27;87411;-59
2023/08/22 13:28:05;;;;;;;0.50;0.40;;;;;;;;;;5059718;27;87868;-60
2023/08/22 13:30:34;;;;;;;0.67;0.40;;;;;;;;;;5063270;27;87615;-59
2023/08/22 13:33:03;;;;;;;0.60;0.40;;;;;;;;;;5064022;27;89716;-60
2023/08/22 13:35:33;;;;;;;0.63;0.50;;;;;;;;;;5063427;27;87711;-60
2023/08/22 13:38:01;;;;;;;0.40;0.40;;;;;;;;;;5063157;27;87699;-60
2023/08/22 13:40:33;;;;;;;1.03;0.50;;;;;;;;;;5063205;27;87595;-59
2023/08/22 13:43:04;;;;;;;0.67;0.50;;;;;;;;;;5062777;27;89265;-59
2023/08/22 13:45:33;;;;;;;0.50;0.30;;;;;;;;;;5062851;27;88973;-59
2023/08/22 13:48:02;;;;;;;1.20;0.60;;;;;;;;;;5062831;27;90076;-60
2023/08/22 13:50:33;;;;;;;4.00;0.47;;;;;;;;;;5063641;27;87575;-60
2023/08/22 13:53:02;;;;;;;2.70;0.70;;;;;;;;;;5063095;27;89626;-60
2023/08/22 13:55:33;;;;;;;0.50;0.50;;;;;;;;;;5063247;27;88180;-60
2023/08/22 13:58:01;;;;;;;1.33;0.90;;;;;;;;;;5063311;27;87489;-60
2023/08/22 14:00:32;;;;;;;0.83;0.83;;;;;;;;;;5063792;27;87647;-60
2023/08/22 14:03:02;;;;;;;1.13;0.90;;;;;;;;;;5063149;27;89606;-59
2023/08/22 14:05:30;;;;;;;2.27;1.60;;;;;;;;;;5063075;27;88077;-60
2023/08/22 14:08:00;;;;;;;1.40;1.20;;;;;;;;;;5062824;27;87753;-60
2023/08/22 14:10:28;;;;;;;1.90;1.23;;;;;;;;;;5062265;27;87862;-60
2023/08/22 14:12:57;;;;;;;1.37;1.07;;;;;;;;;;5063055;27;88539;-59
2023/08/22 14:15:25;;;;;;;2.80;1.53;;;;;;;;;;5062337;27;89077;-60
2023/08/22 14:17:55;;;;;;;1.50;1.40;;;;;;;;;;5062364;27;88971;-60
2023/08/22 14:20:24;;;;;;;2.00;1.47;;;;;;;;;;5062780;27;87567;-60
2023/08/22 14:22:52;;;;;;;2.33;1.70;;;;;;;;;;5062959;27;88745;-59
2023/08/22 14:25:22;;;;;;;3.23;2.07;;;;;;;;;;5062254;27;88991;-60
2023/08/22 14:27:51;;;;;;;2.23;1.87;;;;;;;;;;5062878;27;87556;-60
2023/08/22 14:30:20;;;;;;;2.73;1.87;;;;;;;;;;5063037;27;87628;-60
2023/08/22 14:32:48;;;;;;;3.13;2.13;;;;;;;;;;5062079;27;89733;-60
2023/08/22 14:35:17;;;;;;;2.47;2.03;;;;;;;;;;5061961;27;90091;-60
2023/08/22 14:37:45;;;;;;;2.10;1.90;;;;;;;;;;5062488;27;89762;-60
2023/08/22 14:40:16;;;;;;;2.83;2.03;;;;;;;;;;5062275;27;87536;-60
2023/08/22 14:42:49;;;;;;;3.20;2.17;;;;;;;;;;5061358;27;88554;-60
2023/08/22 14:45:19;;;;;;;2.10;1.77;;;;;;;;;;5062383;27;88056;-60
2023/08/22 14:47:49;;;;;;;3.17;2.40;;;;;;;;;;5061301;27;88477;-60
2023/08/22 14:50:18;;;;;;;3.63;1.70;;;;;;;;;;5062024;27;87440;-60
2023/08/22 14:52:46;;;;;;;2.97;1.80;;;;;;;;;;5062231;27;89673;-59
2023/08/22 14:55:14;;;;;;;2.70;1.80;;;;;;;;;;5061686;27;88208;-60
2023/08/22 14:57:43;;;;;;;3.37;2.37;;;;;;;;;;5061799;27;88790;-59
2023/08/22 15:00:13;;;;;;;4.10;2.17;;;;;;;;;;5061507;27;87990;-60